TAF and METAR

Could not understand the following METAR

YPLM 232300Z AUTO 09010KT 9999 // NCD 15/08 Q1022

TAF for Learmonth Airport

TAF YPLM 231717Z 2318/2418 24008KT CAVOK FM232300 09014G24KT CAVOK FM240300 08010KT CAVOK
Report created 23. jun 19:17

between 23. jun 20:00 - 24. jun 20:00

wind 8 knots from WSW (240°) Clear sky

From 24. jun 01:00

wind 14 knots from E (090°) with gusts up to 24 knots Clear sky

From 24. jun 05:00

wind 10 knots from E (080°) Clear sky